Time;durP1;ratioP1;P1;durP2;ratioP2;P2;SDS_P1;SDS_P2;PMS_P1;PMS_P2;Temp;Humidity;BMP_temperature;BMP_pressure;BME280_temperature;BME280_humidity;BME280_pressure;Samples;Min_cycle;Max_cycle;Signal;HPM_P1;HPM_P2
2022/10/24 00:01:33;;;;;;;2.20;0.30;;;14.90;99.90;;;;;;5025498;28;20075;-78
2022/10/24 00:03:59;;;;;;;1.30;0.30;;;14.90;99.90;;;;;;5043890;28;20060;-76
2022/10/24 00:06:25;;;;;;;1.73;0.30;;;14.90;99.90;;;;;;5025749;28;20064;-75
2022/10/24 00:08:51;;;;;;;3.50;0.40;;;14.90;99.90;;;;;;5045649;28;20027;-75
2022/10/24 00:11:23;;;;;;;1.38;0.30;;;15.00;99.90;;;;;;5046525;28;20037;-75
2022/10/24 00:13:50;;;;;;;2.35;0.30;;;14.90;99.90;;;;;;5040787;28;20159;-78
2022/10/24 00:16:16;;;;;;;2.35;0.40;;;14.90;99.90;;;;;;5049857;28;20082;-78
2022/10/24 00:18:42;;;;;;;1.17;0.20;;;15.00;99.90;;;;;;5023956;28;20021;-75
2022/10/24 00:21:08;;;;;;;1.73;0.30;;;14.90;99.90;;;;;;5042926;28;20497;-77
2022/10/24 00:23:35;;;;;;;0.82;0.28;;;14.90;99.90;;;;;;5046074;28;20511;-75
2022/10/24 00:26:02;;;;;;;2.10;0.30;;;15.00;99.90;;;;;;5043004;28;20037;-80
2022/10/24 00:28:29;;;;;;;1.40;0.30;;;15.00;99.90;;;;;;5042388;28;20040;-78
2022/10/24 00:30:55;;;;;;;2.17;0.20;;;14.90;99.90;;;;;;5041119;28;20073;-75
2022/10/24 00:33:21;;;;;;;1.75;0.28;;;14.90;99.90;;;;;;5052799;28;20064;-76
2022/10/24 00:35:47;;;;;;;1.67;0.30;;;14.90;99.90;;;;;;5053399;28;20034;-75
2022/10/24 00:38:13;;;;;;;1.50;0.30;;;14.90;99.90;;;;;;5043590;28;20022;-79
2022/10/24 00:40:39;;;;;;;2.22;0.30;;;14.90;99.90;;;;;;5040135;28;20033;-76
2022/10/24 00:43:16;;;;;;;1.90;0.30;;;14.90;99.90;;;;;;5044039;28;20041;-80
2022/10/24 00:45:42;;;;;;;1.55;0.30;;;14.80;99.90;;;;;;5054227;28;20489;-80
2022/10/24 00:48:16;;;;;;;6.28;0.30;;;14.90;99.90;;;;;;5045027;28;20043;-75
2022/10/24 00:50:43;;;;;;;1.10;0.20;;;14.80;99.90;;;;;;5041443;28;20033;-75
2022/10/24 00:53:09;;;;;;;1.83;0.30;;;14.90;99.90;;;;;;5041955;28;20402;-79
2022/10/24 00:55:35;;;;;;;3.03;0.47;;;14.90;99.90;;;;;;5041122;28;20040;-79
2022/10/24 00:58:04;;;;;;;2.15;0.30;;;14.80;99.90;;;;;;5040888;28;20045;-79
2022/10/24 01:00:32;;;;;;;1.50;0.20;;;14.90;99.90;;;;;;5043863;28;20024;-76
2022/10/24 01:02:59;;;;;;;2.13;0.30;;;14.90;99.90;;;;;;5056711;28;20471;-80
2022/10/24 01:05:31;;;;;;;1.60;0.32;;;15.00;99.90;;;;;;5029949;28;20032;-76
2022/10/24 01:08:17;;;;;;;2.17;0.35;;;15.00;99.90;;;;;;5024973;28;20029;-79
2022/10/24 01:10:57;;;;;;;3.60;0.40;;;15.00;99.90;;;;;;5043937;28;20469;-75
2022/10/24 01:13:35;;;;;;;;;;;15.10;99.90;;;;;;5042105;28;20111;-75
2022/10/24 01:16:05;;;;;;;1.08;0.30;;;15.20;99.90;;;;;;5032756;28;19909;-80
2022/10/24 01:18:46;;;;;;;1.30;0.22;;;15.30;99.90;;;;;;5040982;28;20389;-79
2022/10/24 01:21:31;;;;;;;2.05;0.40;;;15.30;99.90;;;;;;5042144;28;20428;-75
2022/10/24 01:24:10;;;;;;;1.13;0.30;;;15.30;99.90;;;;;;5043203;28;20033;-76
2022/10/24 01:27:02;;;;;;;1.38;0.30;;;15.20;99.90;;;;;;5054827;28;20025;-74
2022/10/24 01:29:45;;;;;;;1.77;0.40;;;15.10;99.90;;;;;;5041915;28;20112;-75
2022/10/24 01:32:21;;;;;;;1.40;0.20;;;15.20;99.90;;;;;;5039061;28;20481;-75
2022/10/24 01:35:17;;;;;;;6.60;0.47;;;15.20;99.90;;;;;;5042910;28;20446;-79
2022/10/24 01:37:50;;;;;;;2.03;0.30;;;15.10;99.90;;;;;;5041207;28;20044;-75
2022/10/24 01:40:37;;;;;;;2.05;0.30;;;15.10;99.90;;;;;;5042284;28;20125;-74
2022/10/24 01:43:08;;;;;;;1.77;0.38;;;15.10;99.90;;;;;;5042952;28;20017;-76
2022/10/24 01:45:37;;;;;;;1.00;0.22;;;15.10;99.90;;;;;;5059145;28;20048;-76
2022/10/24 01:48:06;;;;;;;1.88;0.28;;;15.10;99.90;;;;;;5042121;28;20424;-77
2022/10/24 01:50:35;;;;;;;1.63;0.20;;;15.10;99.90;;;;;;5031855;28;20385;-79
2022/10/24 01:53:02;;;;;;;1.50;0.30;;;15.00;99.90;;;;;;5035580;28;20405;-78
2022/10/24 01:55:31;;;;;;;3.58;0.50;;;15.00;99.90;;;;;;5068849;28;20108;-74
2022/10/24 01:57:57;;;;;;;2.55;0.40;;;15.10;99.90;;;;;;5068141;28;20504;-77
2022/10/24 02:00:23;;;;;;;1.70;0.30;;;15.00;99.90;;;;;;5055009;28;20070;-78
2022/10/24 02:02:56;;;;;;;3.03;0.30;;;15.00;99.90;;;;;;5055253;28;20032;-76
2022/10/24 02:05:48;;;;;;;0.90;0.30;;;14.90;99.90;;;;;;5068553;28;20115;-75
2022/10/24 02:08:19;;;;;;;4.40;0.93;;;15.00;99.90;;;;;;5061268;28;20041;-81
2022/10/24 02:10:49;;;;;;;2.95;0.30;;;15.00;99.90;;;;;;5050698;28;20091;-76
2022/10/24 02:13:23;;;;;;;3.45;0.50;;;15.00;99.90;;;;;;5049755;28;20074;-75
2022/10/24 02:15:52;;;;;;;2.13;0.30;;;15.00;99.90;;;;;;5043810;28;20396;-80
2022/10/24 02:18:18;;;;;;;2.50;0.30;;;15.00;99.90;;;;;;5052722;28;20021;-80
2022/10/24 02:21:14;;;;;;;1.23;0.40;;;15.00;99.90;;;;;;5052125;28;20028;-75
2022/10/24 02:23:51;;;;;;;1.90;0.30;;;15.10;99.90;;;;;;5033283;28;20031;-82
2022/10/24 02:26:31;;;;;;;2.25;0.40;;;15.10;99.90;;;;;;5054856;28;20024;-77
2022/10/24 02:29:03;;;;;;;1.27;0.40;;;15.10;99.90;;;;;;5068020;28;20058;-76
2022/10/24 02:31:34;;;;;;;1.80;0.30;;;15.10;99.90;;;;;;5044253;28;20032;-80
2022/10/24 02:34:04;;;;;;;1.08;0.20;;;15.10;99.90;;;;;;5072338;28;20099;-75
2022/10/24 02:36:32;;;;;;;2.00;0.30;;;15.10;99.90;;;;;;5060989;28;20039;-78
2022/10/24 02:38:59;;;;;;;2.30;0.30;;;15.00;99.90;;;;;;5050043;28;20037;-75
2022/10/24 02:41:31;;;;;;;1.25;0.30;;;15.00;99.90;;;;;;5049346;28;20079;-79
2022/10/24 02:43:59;;;;;;;1.55;0.30;;;14.90;99.90;;;;;;5069225;28;20441;-78
2022/10/24 02:46:25;;;;;;;1.23;0.22;;;14.90;99.90;;;;;;5049922;28;20043;-75
2022/10/24 02:48:57;;;;;;;2.22;0.30;;;14.90;99.90;;;;;;5051195;28;20045;-75
2022/10/24 02:51:27;;;;;;;1.88;0.20;;;14.90;99.90;;;;;;5038997;28;20032;-74
2022/10/24 02:53:52;;;;;;;2.22;0.38;;;14.90;99.90;;;;;;5052815;28;20431;-76
2022/10/24 02:56:18;;;;;;;0.88;0.30;;;15.00;99.90;;;;;;5048519;28;20025;-78
2022/10/24 02:58:44;;;;;;;3.90;0.30;;;14.90;99.90;;;;;;5033645;28;20028;-76
2022/10/24 03:01:10;;;;;;;1.85;0.20;;;14.90;99.90;;;;;;5067777;28;20017;-75
2022/10/24 03:03:35;;;;;;;1.10;0.28;;;14.80;99.90;;;;;;5061837;28;20031;-75
2022/10/24 03:06:01;;;;;;;1.08;0.30;;;14.90;99.90;;;;;;5057572;28;20029;-75
2022/10/24 03:08:27;;;;;;;1.27;0.30;;;15.00;99.90;;;;;;5058606;28;20033;-75
2022/10/24 03:10:52;;;;;;;2.88;0.22;;;14.90;99.90;;;;;;5040256;28;20045;-75
2022/10/24 03:13:18;;;;;;;2.17;0.20;;;14.80;99.90;;;;;;5050486;28;20059;-75
2022/10/24 03:15:44;;;;;;;1.70;0.40;;;14.80;99.90;;;;;;5066838;28;20028;-76
2022/10/24 03:18:09;;;;;;;1.65;0.20;;;14.70;99.90;;;;;;5064403;28;20116;-76
2022/10/24 03:20:35;;;;;;;1.67;0.20;;;14.70;99.90;;;;;;5044808;28;20031;-75
2022/10/24 03:23:01;;;;;;;2.10;0.32;;;14.80;99.90;;;;;;5050990;28;20491;-80
2022/10/24 03:25:27;;;;;;;2.05;0.20;;;14.90;99.90;;;;;;5064438;28;20103;-74
2022/10/24 03:27:52;;;;;;;1.70;0.20;;;14.90;99.90;;;;;;5067846;28;20458;-74
2022/10/24 03:30:18;;;;;;;2.40;0.35;;;15.00;99.90;;;;;;5046981;28;20105;-77
2022/10/24 03:32:44;;;;;;;1.35;0.20;;;14.90;99.90;;;;;;5047378;28;20048;-75
2022/10/24 03:35:10;;;;;;;0.60;0.10;;;14.90;99.90;;;;;;5045065;28;20028;-76
2022/10/24 03:37:35;;;;;;;2.17;0.17;;;14.80;99.90;;;;;;5047850;28;20028;-75
2022/10/24 03:40:01;;;;;;;1.08;0.20;;;14.70;99.90;;;;;;5065140;28;20016;-74
2022/10/24 03:42:27;;;;;;;1.02;0.20;;;14.70;99.90;;;;;;5045466;28;20040;-75
2022/10/24 03:44:52;;;;;;;0.93;0.10;;;14.70;99.90;;;;;;5060363;28;20047;-74
2022/10/24 03:47:18;;;;;;;0.98;0.20;;;14.80;99.90;;;;;;5051129;28;20028;-76
2022/10/24 03:49:44;;;;;;;2.53;0.20;;;14.80;99.90;;;;;;5051162;28;20016;-80
2022/10/24 03:52:10;;;;;;;1.40;0.20;;;14.80;99.90;;;;;;5064306;28;20039;-75
2022/10/24 03:54:37;;;;;;;4.00;0.20;;;14.90;99.90;;;;;;5063604;28;20426;-79
2022/10/24 03:57:03;;;;;;;1.75;0.28;;;14.90;99.90;;;;;;5049740;28;20031;-75
2022/10/24 03:59:29;;;;;;;1.45;0.20;;;14.90;99.90;;;;;;5050217;28;20024;-75
2022/10/24 04:01:55;;;;;;;1.70;0.20;;;14.90;99.90;;;;;;5064913;28;20032;-75
2022/10/24 04:04:21;;;;;;;1.27;0.25;;;14.90;99.90;;;;;;5058025;28;20444;-75
2022/10/24 04:06:46;;;;;;;1.77;0.20;;;15.10;99.90;;;;;;5060399;28;20025;-75
2022/10/24 04:09:12;;;;;;;1.40;0.20;;;14.90;99.90;;;;;;5047215;28;20680;-76
2022/10/24 04:11:38;;;;;;;1.77;0.20;;;14.80;99.90;;;;;;5062726;28;20461;-74
2022/10/24 04:14:04;;;;;;;1.10;0.10;;;14.70;99.90;;;;;;5046641;28;20025;-75
2022/10/24 04:16:32;;;;;;;1.65;0.20;;;14.70;99.90;;;;;;5045446;28;20066;-75
2022/10/24 04:18:58;;;;;;;1.38;0.15;;;14.70;99.90;;;;;;5046145;28;20060;-75
2022/10/24 04:21:24;;;;;;;0.68;0.10;;;14.70;99.90;;;;;;5048442;28;20052;-77
2022/10/24 04:23:49;;;;;;;3.45;0.20;;;14.70;99.90;;;;;;5050029;28;20020;-74
2022/10/24 04:26:16;;;;;;;0.70;0.10;;;14.70;99.90;;;;;;5049986;28;20660;-77
2022/10/24 04:28:45;;;;;;;1.95;0.20;;;14.60;99.90;;;;;;5066138;28;20024;-75
2022/10/24 04:31:11;;;;;;;2.25;0.32;;;14.60;99.90;;;;;;5049030;28;20059;-80
2022/10/24 04:33:37;;;;;;;0.82;0.10;;;14.50;99.90;;;;;;5057795;28;20384;-75
2022/10/24 04:36:03;;;;;;;1.10;0.20;;;14.50;99.90;;;;;;5063239;28;20427;-75
2022/10/24 04:38:28;;;;;;;1.80;0.20;;;14.50;99.90;;;;;;5045638;28;20500;-78
2022/10/24 04:40:54;;;;;;;1.80;0.20;;;14.50;99.90;;;;;;5048543;28;20123;-76
2022/10/24 04:43:21;;;;;;;1.17;0.15;;;14.60;99.90;;;;;;5063056;28;20107;-76
2022/10/24 04:45:46;;;;;;;1.05;0.20;;;14.60;99.90;;;;;;5056956;28;20386;-75
2022/10/24 04:48:13;;;;;;;1.48;0.20;;;14.60;99.90;;;;;;5063019;28;20027;-78
2022/10/24 04:50:40;;;;;;;1.85;0.20;;;14.60;99.90;;;;;;5046343;28;20033;-80
2022/10/24 04:53:06;;;;;;;1.20;0.20;;;14.60;99.90;;;;;;5041296;28;20035;-76
2022/10/24 04:55:32;;;;;;;0.70;0.20;;;14.60;99.90;;;;;;5047702;28;20024;-75
2022/10/24 04:57:58;;;;;;;1.45;0.32;;;14.60;99.90;;;;;;5048038;28;20035;-77
2022/10/24 05:00:24;;;;;;;1.55;0.30;;;14.60;99.90;;;;;;5066234;28;20048;-75
2022/10/24 05:02:49;;;;;;;0.70;0.17;;;14.60;99.90;;;;;;5030296;28;20035;-75
2022/10/24 05:05:16;;;;;;;1.48;0.20;;;14.70;99.90;;;;;;5028991;28;20039;-80
2022/10/24 05:07:42;;;;;;;2.25;0.55;;;14.70;99.90;;;;;;5044410;28;20024;-74
2022/10/24 05:10:08;;;;;;;0.80;0.20;;;14.60;99.90;;;;;;5029874;28;20040;-76
2022/10/24 05:12:34;;;;;;;3.00;0.20;;;14.60;99.90;;;;;;5049193;28;20036;-75
2022/10/24 05:15:00;;;;;;;1.38;0.25;;;14.60;99.90;;;;;;5063851;28;20439;-75
2022/10/24 05:17:25;;;;;;;0.70;0.20;;;14.60;99.90;;;;;;5042443;28;20028;-80
2022/10/24 05:19:51;;;;;;;2.22;0.20;;;14.60;99.90;;;;;;5059551;28;20032;-76
2022/10/24 05:22:17;;;;;;;1.30;0.15;;;14.60;99.90;;;;;;5063076;28;20040;-74
2022/10/24 05:24:43;;;;;;;3.05;0.20;;;14.60;99.90;;;;;;5063752;28;20024;-76
2022/10/24 05:27:08;;;;;;;1.30;0.20;;;14.70;99.90;;;;;;5061209;28;20503;-80
2022/10/24 05:29:34;;;;;;;1.45;0.20;;;14.80;99.90;;;;;;5062906;28;20819;-77
2022/10/24 05:32:00;;;;;;;2.55;0.20;;;14.60;99.90;;;;;;5064024;28;20533;-75
2022/10/24 05:34:26;;;;;;;2.13;0.20;;;14.60;99.90;;;;;;5049224;28;20089;-75
2022/10/24 05:36:51;;;;;;;2.40;0.10;;;14.60;99.90;;;;;;5049246;28;20078;-75
2022/10/24 05:39:17;;;;;;;2.05;0.10;;;14.60;99.90;;;;;;5038077;28;20048;-76
2022/10/24 05:41:43;;;;;;;0.82;0.10;;;14.60;99.90;;;;;;5048559;28;20028;-79
2022/10/24 05:44:11;;;;;;;1.00;0.30;;;14.50;99.90;;;;;;5062353;28;20041;-75
2022/10/24 05:46:36;;;;;;;2.03;0.30;;;14.60;99.90;;;;;;5049232;28;20432;-75
2022/10/24 05:49:03;;;;;;;1.25;0.10;;;14.60;99.90;;;;;;5063471;28;20060;-77
2022/10/24 05:51:29;;;;;;;1.17;0.10;;;14.70;99.90;;;;;;5064216;28;20041;-76
2022/10/24 05:53:55;;;;;;;1.50;0.20;;;14.80;99.90;;;;;;5063147;28;20047;-75
2022/10/24 05:56:20;;;;;;;0.95;0.20;;;14.70;99.90;;;;;;5058894;28;20066;-77
2022/10/24 05:58:46;;;;;;;1.10;0.10;;;14.60;99.90;;;;;;5058666;28;20491;-77
2022/10/24 06:01:12;;;;;;;1.00;0.20;;;14.70;99.90;;;;;;5063174;28;20031;-82
2022/10/24 06:03:38;;;;;;;0.95;0.10;;;14.60;99.90;;;;;;5063302;28;20021;-75
2022/10/24 06:06:08;;;;;;;1.60;0.10;;;14.70;99.90;;;;;;5027145;28;20226;-81
2022/10/24 06:08:36;;;;;;;1.33;0.20;;;14.70;99.90;;;;;;5062920;28;20036;-74
2022/10/24 06:11:02;;;;;;;1.42;0.20;;;14.60;99.90;;;;;;5058576;28;20099;-76
2022/10/24 06:13:28;;;;;;;3.75;0.30;;;14.60;99.90;;;;;;5061836;28;20036;-81
2022/10/24 06:15:54;;;;;;;2.13;0.15;;;14.60;99.90;;;;;;5028691;28;20036;-75
2022/10/24 06:18:20;;;;;;;1.38;0.15;;;14.80;99.90;;;;;;5043608;28;20043;-82
2022/10/24 06:20:45;;;;;;;1.85;0.20;;;14.80;99.90;;;;;;5048697;28;20060;-75
2022/10/24 06:23:11;;;;;;;3.17;0.20;;;14.70;99.90;;;;;;5060990;28;20067;-75
2022/10/24 06:25:40;;;;;;;3.17;0.10;;;14.70;99.90;;;;;;5062720;28;20029;-77
2022/10/24 06:28:06;;;;;;;4.03;0.20;;;15.00;99.90;;;;;;5062205;28;20036;-77
2022/10/24 06:30:32;;;;;;;1.77;0.30;;;14.90;99.90;;;;;;5064586;28;20024;-76
2022/10/24 06:32:58;;;;;;;2.00;0.20;;;15.00;99.90;;;;;;5060095;28;20034;-75
2022/10/24 06:35:24;;;;;;;2.20;0.30;;;14.90;99.90;;;;;;5062847;28;20029;-75
2022/10/24 06:37:50;;;;;;;7.20;0.30;;;14.90;99.90;;;;;;5045703;28;20036;-81
2022/10/24 06:40:17;;;;;;;4.72;0.63;;;14.90;99.90;;;;;;5060398;28;20028;-82
2022/10/24 06:42:43;;;;;;;3.75;0.30;;;14.90;99.90;;;;;;5065055;28;20024;-77
2022/10/24 06:45:09;;;;;;;2.78;0.38;;;14.90;99.90;;;;;;5066470;28;20040;-82
2022/10/24 06:47:35;;;;;;;2.00;0.20;;;14.90;99.90;;;;;;5051982;28;20024;-74
2022/10/24 06:50:01;;;;;;;4.50;0.22;;;14.90;99.90;;;;;;5033577;28;20050;-77
2022/10/24 06:52:27;;;;;;;3.22;0.20;;;14.90;99.90;;;;;;5057866;28;20036;-75
2022/10/24 06:54:53;;;;;;;2.95;0.40;;;14.90;99.90;;;;;;5028516;28;20033;-76
2022/10/24 06:57:18;;;;;;;0.90;0.20;;;14.80;99.90;;;;;;5028977;28;20033;-76
2022/10/24 06:59:44;;;;;;;2.17;0.20;;;14.80;99.90;;;;;;5047421;28;20029;-80
2022/10/24 07:02:14;;;;;;;2.08;0.10;;;14.80;99.90;;;;;;5065990;28;20020;-75
2022/10/24 07:04:40;;;;;;;3.95;0.30;;;14.90;99.90;;;;;;5064121;28;20035;-74
2022/10/24 07:07:05;;;;;;;3.22;0.20;;;15.10;99.90;;;;;;5030187;28;20029;-77
2022/10/24 07:09:31;;;;;;;6.05;0.30;;;14.90;99.90;;;;;;5043978;28;20033;-74
2022/10/24 07:11:58;;;;;;;1.40;0.10;;;15.00;99.90;;;;;;5058600;28;20483;-76
2022/10/24 07:14:24;;;;;;;3.28;0.20;;;15.10;99.90;;;;;;5050979;28;20372;-80
2022/10/24 07:16:50;;;;;;;3.67;0.30;;;15.20;99.90;;;;;;5052496;28;20044;-79
2022/10/24 07:19:16;;;;;;;3.00;0.30;;;15.20;99.90;;;;;;5040841;28;20437;-78
2022/10/24 07:21:42;;;;;;;3.80;0.30;;;15.20;99.90;;;;;;5064122;28;20017;-77
2022/10/24 07:24:11;;;;;;;2.80;0.20;;;15.40;99.90;;;;;;5049806;28;20029;-74
2022/10/24 07:26:37;;;;;;;3.30;0.20;;;15.40;99.90;;;;;;5057102;28;20548;-79
2022/10/24 07:29:03;;;;;;;3.10;0.30;;;15.40;99.90;;;;;;5051308;28;20111;-77
2022/10/24 07:31:31;;;;;;;2.60;0.20;;;15.40;99.90;;;;;;5066257;28;20151;-76
2022/10/24 07:33:58;;;;;;;0.98;0.20;;;15.40;99.90;;;;;;5033356;28;20028;-74
2022/10/24 07:36:25;;;;;;;3.70;0.20;;;15.30;99.90;;;;;;5062963;28;20029;-75
2022/10/24 07:38:53;;;;;;;4.45;0.20;;;15.40;99.90;;;;;;5028588;28;20025;-76
2022/10/24 07:41:19;;;;;;;3.13;0.30;;;15.50;99.90;;;;;;5064554;28;20044;-76
2022/10/24 07:43:45;;;;;;;3.28;0.20;;;15.50;99.90;;;;;;5065703;28;20036;-82
2022/10/24 07:46:14;;;;;;;2.47;0.20;;;15.40;99.90;;;;;;5065126;28;20028;-79
2022/10/24 07:48:41;;;;;;;3.60;0.30;;;15.40;99.90;;;;;;5029359;28;20477;-83
2022/10/24 07:51:10;;;;;;;3.22;0.20;;;15.40;99.90;;;;;;5045976;28;20041;-80
2022/10/24 07:53:35;;;;;;;4.97;0.20;;;15.50;99.90;;;;;;5064568;28;20365;-81
2022/10/24 07:56:01;;;;;;;2.65;0.20;;;15.60;99.90;;;;;;5044098;28;20027;-77
2022/10/24 07:58:28;;;;;;;2.97;0.32;;;15.60;99.90;;;;;;5049684;28;20028;-74
2022/10/24 08:00:53;;;;;;;3.33;0.20;;;15.70;99.90;;;;;;5044327;28;20032;-78
2022/10/24 08:03:19;;;;;;;5.25;0.20;;;15.80;99.90;;;;;;5060869;28;20086;-75
2022/10/24 08:05:46;;;;;;;3.28;0.20;;;15.90;99.90;;;;;;5055978;28;20023;-76
2022/10/24 08:08:11;;;;;;;3.45;0.43;;;16.00;99.90;;;;;;5054044;28;20380;-75
2022/10/24 08:10:37;;;;;;;5.78;0.20;;;16.10;99.90;;;;;;5053880;28;20055;-83
2022/10/24 08:13:03;;;;;;;4.38;0.20;;;16.20;99.90;;;;;;5038380;28;20032;-83
2022/10/24 08:15:29;;;;;;;4.07;0.50;;;16.40;99.90;;;;;;5033830;28;20079;-79
2022/10/24 08:17:55;;;;;;;2.10;0.20;;;16.40;99.90;;;;;;5040948;28;20029;-77
2022/10/24 08:20:23;;;;;;;5.93;0.57;;;16.30;99.90;;;;;;5041935;28;20029;-74
2022/10/24 08:22:48;;;;;;;3.80;0.25;;;16.30;99.90;;;;;;5054750;28;20078;-74
2022/10/24 08:25:14;;;;;;;3.78;0.20;;;16.30;99.90;;;;;;5038236;28;20033;-76
2022/10/24 08:27:41;;;;;;;2.25;0.20;;;16.30;99.90;;;;;;5053253;28;20443;-74
2022/10/24 08:30:07;;;;;;;8.05;0.40;;;16.20;99.90;;;;;;5035240;28;20511;-78
2022/10/24 08:32:34;;;;;;;4.90;0.40;;;16.10;99.90;;;;;;5039200;28;20140;-82
2022/10/24 08:35:00;;;;;;;3.95;0.30;;;16.10;99.90;;;;;;5043125;28;20179;-75
2022/10/24 08:37:26;;;;;;;2.17;0.20;;;16.10;99.90;;;;;;5046411;28;20181;-80
2022/10/24 08:39:55;;;;;;;3.25;0.20;;;16.00;99.90;;;;;;5056866;28;20091;-74
2022/10/24 08:42:23;;;;;;;5.60;0.30;;;16.00;99.90;;;;;;5043546;28;20036;-75
2022/10/24 08:44:49;;;;;;;4.50;0.22;;;16.00;99.90;;;;;;5055179;28;20066;-74
2022/10/24 08:47:38;;;;;;;1.77;0.20;;;15.90;99.90;;;;;;5054545;28;20066;-76
2022/10/24 08:50:22;;;;;;;5.60;0.40;;;15.80;99.90;;;;;;5039473;28;20037;-75
2022/10/24 08:52:55;;;;;;;1.33;0.20;;;15.80;99.90;;;;;;5051477;28;20393;-74
2022/10/24 08:55:24;;;;;;;2.50;0.47;;;15.80;99.90;;;;;;5038472;28;20051;-74
2022/10/24 08:57:53;;;;;;;3.38;0.30;;;15.90;99.90;;;;;;5055912;28;20029;-79
2022/10/24 09:00:22;;;;;;;6.03;0.40;;;16.10;99.90;;;;;;5053284;28;20119;-79
2022/10/24 09:02:56;;;;;;;6.07;0.43;;;16.10;99.90;;;;;;5040565;28;20028;-78
2022/10/24 09:05:28;;;;;;;5.03;0.30;;;16.10;99.90;;;;;;5056706;28;20392;-74
2022/10/24 09:08:01;;;;;;;7.30;0.40;;;16.00;99.90;;;;;;5036451;28;20020;-78
2022/10/24 09:10:45;;;;;;;4.75;0.30;;;16.10;99.90;;;;;;5056337;28;20062;-78
2022/10/24 09:13:15;;;;;;;4.93;0.30;;;16.20;99.90;;;;;;5055444;28;20041;-77
2022/10/24 09:15:44;;;;;;;2.88;0.20;;;16.30;99.90;;;;;;5037983;28;20028;-74
2022/10/24 09:18:24;;;;;;;2.70;0.22;;;16.50;99.90;;;;;;5055704;28;20257;-80
2022/10/24 09:20:52;;;;;;;8.48;0.30;;;16.80;99.90;;;;;;5054958;28;20052;-80
2022/10/24 09:23:20;;;;;;;4.50;0.50;;;16.70;99.90;;;;;;5035640;28;20054;-74
2022/10/24 09:25:55;;;;;;;4.50;0.30;;;16.70;99.90;;;;;;5055981;28;20031;-82
2022/10/24 09:28:21;;;;;;;3.22;0.50;;;16.80;99.90;;;;;;5021756;28;20488;-78
2022/10/24 09:30:48;;;;;;;3.42;0.20;;;16.90;99.90;;;;;;5053697;28;20055;-81
2022/10/24 09:33:34;;;;;;;2.55;0.20;;;17.00;99.90;;;;;;5054251;28;20029;-74
2022/10/24 09:36:03;;;;;;;2.00;0.20;;;17.20;99.90;;;;;;5053795;28;20028;-74
2022/10/24 09:38:34;;;;;;;3.00;0.37;;;17.20;99.90;;;;;;5034301;28;20408;-75
2022/10/24 09:41:18;;;;;;;3.70;0.40;;;17.30;99.90;;;;;;5055817;28;20107;-73
2022/10/24 09:43:47;;;;;;;4.07;0.30;;;17.40;99.90;;;;;;5035525;28;20051;-83
2022/10/24 09:46:19;;;;;;;4.90;0.28;;;17.40;99.90;;;;;;5034751;28;20439;-75
2022/10/24 09:48:48;;;;;;;5.40;0.45;;;17.70;99.90;;;;;;5038514;28;20020;-75
2022/10/24 09:51:47;;;;;;;4.63;0.40;;;17.60;99.90;;;;;;5053213;28;20041;-74
2022/10/24 09:54:18;;;;;;;2.92;0.25;;;17.70;99.90;;;;;;5034439;28;20405;-78
2022/10/24 09:57:25;;;;;;;4.80;0.70;;;17.60;99.90;;;;;;5026766;28;20028;-75
2022/10/24 09:59:59;;;;;;;2.92;0.30;;;17.70;99.90;;;;;;5016028;28;20542;-75
2022/10/24 10:02:33;;;;;;;4.18;0.20;;;17.80;99.90;;;;;;5056158;28;20024;-79
2022/10/24 10:05:10;;;;;;;3.03;0.10;;;17.80;99.90;;;;;;5039072;28;20021;-75
2022/10/24 10:07:38;;;;;;;6.15;0.22;;;17.90;99.90;;;;;;5037034;28;20028;-80
2022/10/24 10:10:27;;;;;;;2.20;0.20;;;17.80;99.90;;;;;;5044503;28;20078;-74
2022/10/24 10:13:04;;;;;;;3.63;0.30;;;17.90;99.90;;;;;;5037596;28;20143;-74
2022/10/24 10:15:35;;;;;;;2.88;0.25;;;17.80;99.90;;;;;;5035703;28;20028;-77
2022/10/24 10:18:22;;;;;;;2.63;0.20;;;17.60;99.90;;;;;;5038868;28;20033;-74
2022/10/24 10:21:18;;;;;;;4.22;0.10;;;17.70;99.90;;;;;;5057898;28;20456;-74
2022/10/24 10:23:49;;;;;;;2.28;0.28;;;17.50;99.90;;;;;;5037374;28;20036;-75
2022/10/24 10:26:28;;;;;;;0.90;0.15;;;17.60;99.90;;;;;;5057799;28;20029;-74
2022/10/24 10:28:54;;;;;;;2.53;0.20;;;17.70;99.90;;;;;;5035866;28;20029;-76
2022/10/24 10:31:27;;;;;;;4.43;0.30;;;17.70;99.90;;;;;;5046095;28;20064;-74
2022/10/24 10:34:10;;;;;;;3.25;0.20;;;17.50;99.90;;;;;;5055840;28;20028;-74
2022/10/24 10:37:00;;;;;;;3.13;0.10;;;17.60;99.90;;;;;;5040112;28;20021;-74
2022/10/24 10:39:47;;;;;;;2.58;0.20;;;17.70;99.90;;;;;;5023550;28;20058;-76
2022/10/24 10:42:22;;;;;;;7.15;0.20;;;17.70;99.90;;;;;;5040585;28;20035;-80
2022/10/24 10:45:07;;;;;;;2.75;0.20;;;17.60;99.90;;;;;;5058364;28;20135;-80
2022/10/24 10:47:48;;;;;;;3.60;0.20;;;17.80;99.90;;;;;;5056206;28;20039;-78
2022/10/24 10:50:25;;;;;;;2.67;0.20;;;18.00;99.90;;;;;;5040620;28;20029;-77
2022/10/24 10:52:59;;;;;;;2.25;0.10;;;18.10;99.90;;;;;;5044812;28;20055;-77
2022/10/24 10:55:41;;;;;;;5.32;0.40;;;18.00;99.90;;;;;;5034942;28;20021;-77
2022/10/24 10:58:21;;;;;;;3.15;0.22;;;18.30;99.90;;;;;;5050271;28;20029;-78
2022/10/24 11:00:55;;;;;;;2.55;0.20;;;18.30;99.90;;;;;;5056554;28;20039;-76
2022/10/24 11:03:48;;;;;;;1.25;0.10;;;18.00;99.90;;;;;;5038780;28;20036;-76
2022/10/24 11:06:23;;;;;;;3.72;0.30;;;18.00;99.90;;;;;;5046614;28;20036;-77
2022/10/24 11:09:13;;;;;;;3.38;0.20;;;18.10;99.90;;;;;;5054432;28;20489;-77
2022/10/24 11:11:47;;;;;;;3.72;0.20;;;18.10;99.90;;;;;;5023003;28;20114;-77
2022/10/24 11:14:25;;;;;;;1.17;0.10;;;18.00;99.90;;;;;;5040453;28;20032;-78
2022/10/24 11:16:55;;;;;;;6.30;0.45;;;18.00;99.90;;;;;;5057621;28;20021;-79
2022/10/24 11:19:39;;;;;;;;;;;18.00;99.90;;;;;;5038905;28;20040;-77
2022/10/24 11:22:15;;;;;;;4.28;0.20;;;18.00;99.90;;;;;;5056993;28;19924;-78
2022/10/24 11:24:49;;;;;;;2.65;0.20;;;18.10;99.90;;;;;;5053243;28;20076;-77
2022/10/24 11:27:21;;;;;;;3.03;0.20;;;17.90;99.90;;;;;;5044364;28;20043;-76
2022/10/24 11:30:11;;;;;;;3.55;0.20;;;17.70;99.90;;;;;;5058492;28;20024;-77
2022/10/24 11:33:00;;;;;;;3.20;0.50;;;17.60;99.90;;;;;;5058570;28;20028;-78
2022/10/24 11:35:39;;;;;;;3.30;0.30;;;17.50;99.90;;;;;;5054488;28;20512;-77
2022/10/24 11:38:20;;;;;;;2.30;0.20;;;17.40;99.90;;;;;;5039895;28;20033;-79
2022/10/24 11:40:52;;;;;;;2.97;0.20;;;17.30;99.90;;;;;;5038076;28;20428;-77
2022/10/24 11:43:27;;;;;;;5.00;0.30;;;17.20;99.90;;;;;;5055739;28;20043;-82
2022/10/24 11:46:19;;;;;;;3.72;0.20;;;17.40;99.90;;;;;;5056978;28;20112;-77
2022/10/24 11:48:59;;;;;;;4.50;0.32;;;17.60;99.90;;;;;;5027981;28;20032;-79
2022/10/24 11:51:37;;;;;;;5.63;0.43;;;17.60;99.90;;;;;;5040002;28;20459;-77
2022/10/24 11:54:41;;;;;;;3.25;0.35;;;17.70;99.90;;;;;;5056102;28;20032;-80
2022/10/24 11:57:20;;;;;;;3.78;0.30;;;17.60;99.90;;;;;;5024887;28;20025;-77
2022/10/24 11:59:46;;;;;;;3.10;0.30;;;17.50;99.90;;;;;;5057823;28;20075;-77
2022/10/24 12:02:26;;;;;;;2.95;0.30;;;17.50;99.90;;;;;;5045460;28;20033;-85
2022/10/24 12:05:30;;;;;;;3.05;0.20;;;17.50;99.90;;;;;;5024093;28;20141;-77
2022/10/24 12:08:14;;;;;;;2.90;0.20;;;17.70;99.90;;;;;;5057123;28;20572;-77
2022/10/24 12:10:43;;;;;;;3.45;0.20;;;17.60;99.90;;;;;;5055453;28;20033;-80
2022/10/24 12:13:30;;;;;;;3.67;0.30;;;17.70;99.90;;;;;;5021311;28;20472;-77
2022/10/24 12:16:26;;;;;;;4.07;0.28;;;17.50;99.90;;;;;;5033733;28;20284;-78
2022/10/24 12:18:59;;;;;;;5.25;0.40;;;17.20;99.90;;;;;;5021400;28;20076;-78
2022/10/24 12:21:33;;;;;;;3.67;0.30;;;16.80;99.90;;;;;;5040928;28;20077;-77
2022/10/24 12:24:00;;;;;;;5.55;0.40;;;16.40;99.90;;;;;;5057662;28;20059;-76
2022/10/24 12:26:34;;;;;;;3.53;0.20;;;16.10;99.90;;;;;;5056785;28;20114;-77
2022/10/24 12:29:02;;;;;;;4.07;0.30;;;15.80;99.90;;;;;;5039079;28;20024;-76
2022/10/24 12:31:34;;;;;;;3.92;0.30;;;15.60;99.90;;;;;;5038334;28;20051;-77
2022/10/24 12:34:18;;;;;;;3.70;0.30;;;15.50;99.90;;;;;;5037326;28;20033;-77
2022/10/24 12:37:10;;;;;;;1.33;0.20;;;15.60;99.90;;;;;;5037627;28;20024;-79
2022/10/24 12:39:45;;;;;;;4.63;0.25;;;15.50;99.90;;;;;;5020388;28;20035;-77
2022/10/24 12:42:22;;;;;;;3.70;0.30;;;15.50;99.90;;;;;;5057056;28;20024;-76
2022/10/24 12:45:11;;;;;;;5.35;0.40;;;15.40;99.90;;;;;;5024811;28;20179;-76
2022/10/24 12:47:59;;;;;;;5.35;0.40;;;15.30;99.90;;;;;;5053713;28;20029;-77
2022/10/24 12:50:27;;;;;;;3.78;0.43;;;15.40;99.90;;;;;;5019134;28;20025;-77
2022/10/24 12:52:53;;;;;;;3.85;0.38;;;15.50;99.90;;;;;;5055634;28;20033;-82
2022/10/24 12:55:37;;;;;;;4.53;0.50;;;15.50;99.90;;;;;;5043058;28;20043;-77
2022/10/24 12:58:29;;;;;;;6.10;0.40;;;15.50;99.90;;;;;;5058160;28;20051;-77
2022/10/24 13:01:02;;;;;;;4.65;0.40;;;15.40;99.90;;;;;;5057620;28;20077;-77
2022/10/24 13:03:50;;;;;;;6.95;0.40;;;15.40;99.90;;;;;;5035033;28;20374;-76
2022/10/24 13:06:42;;;;;;;4.63;0.40;;;15.30;99.90;;;;;;5054746;28;20029;-77
2022/10/24 13:09:13;;;;;;;6.18;0.63;;;15.40;99.90;;;;;;5037771;28;20032;-76